createdAt,value
2023-03-20T00:01:13.925Z,10.80
2023-03-20T00:03:41.174Z,10.38
2023-03-20T00:06:39.919Z,10.15
2023-03-20T00:09:07.127Z,10.90
2023-03-20T00:11:36.681Z,10.90
2023-03-20T00:14:09.514Z,10.45
2023-03-20T00:16:39.193Z,9.77
2023-03-20T00:19:08.588Z,10.43
2023-03-20T00:21:35.157Z,10.45
2023-03-20T00:24:01.911Z,10.60
2023-03-20T00:26:33.449Z,9.82
2023-03-20T00:29:01.657Z,10.93
2023-03-20T00:31:31.912Z,10.93
2023-03-20T00:34:05.369Z,10.23
2023-03-20T00:36:32.781Z,10.48
2023-03-20T00:38:59.552Z,10.73
2023-03-20T00:41:44.189Z,10.32
2023-03-20T00:44:19.499Z,10.25
2023-03-20T00:46:48.464Z,10.57
2023-03-20T00:49:15.053Z,9.93
2023-03-20T00:51:42.375Z,10.60
2023-03-20T00:54:17.283Z,10.48
2023-03-20T00:57:06.905Z,10.63
2023-03-20T00:59:37.577Z,11.10
2023-03-20T01:02:04.833Z,10.07
2023-03-20T01:04:37.751Z,10.40
2023-03-20T01:07:06.129Z,10.38
2023-03-20T01:09:32.855Z,11.05
2023-03-20T01:12:00.764Z,10.50
2023-03-20T01:14:27.348Z,10.75
2023-03-20T01:16:54.047Z,10.68
2023-03-20T01:19:20.647Z,10.60
2023-03-20T01:21:47.538Z,11.23
2023-03-20T01:24:14.166Z,10.50
2023-03-20T01:26:43.132Z,11.50
2023-03-20T01:29:28.077Z,11.20
2023-03-20T01:31:55.026Z,10.95
2023-03-20T01:34:24.077Z,11.18
2023-03-20T01:36:56.082Z,11.50
2023-03-20T01:39:31.542Z,11.75
2023-03-20T01:41:58.562Z,11.85
2023-03-20T01:44:33.471Z,11.45
2023-03-20T01:47:02.341Z,12.63
2023-03-20T01:49:28.906Z,13.10
2023-03-20T01:51:59.266Z,13.60
2023-03-20T01:54:35.799Z,13.45
2023-03-20T01:57:16.852Z,13.65
2023-03-20T01:59:57.547Z,13.32
2023-03-20T02:02:30.276Z,13.00
2023-03-20T02:05:01.981Z,13.25
2023-03-20T02:07:29.834Z,12.85
2023-03-20T02:10:14.409Z,13.30
2023-03-20T02:12:49.003Z,13.13
2023-03-20T02:15:27.168Z,12.73
2023-03-20T02:18:14.318Z,13.07
2023-03-20T02:21:02.602Z,12.85
2023-03-20T02:23:59.702Z,12.95
2023-03-20T02:27:03.854Z,12.93
2023-03-20T02:29:53.580Z,12.43
2023-03-20T02:32:58.837Z,12.93
2023-03-20T02:35:31.580Z,12.48
2023-03-20T02:38:26.981Z,12.95
2023-03-20T02:41:11.264Z,12.93
2023-03-20T02:43:48.630Z,13.98
2023-03-20T02:46:27.204Z,12.85
2023-03-20T02:48:56.928Z,13.68
2023-03-20T02:52:05.130Z,14.15
2023-03-20T02:55:21.885Z,13.80
2023-03-20T02:58:11.815Z,14.77
2023-03-20T03:00:48.226Z,14.23
2023-03-20T03:03:31.720Z,14.23
2023-03-20T03:06:02.937Z,13.68
2023-03-20T03:08:35.150Z,14.18
2023-03-20T03:11:06.313Z,13.70
2023-03-20T03:13:37.688Z,13.77
2023-03-20T03:16:10.280Z,14.45
2023-03-20T03:18:40.970Z,13.68
2023-03-20T03:21:09.589Z,13.98
2023-03-20T03:23:45.386Z,13.45
2023-03-20T03:26:18.685Z,13.70
2023-03-20T03:28:51.027Z,14.55
2023-03-20T03:31:19.186Z,13.82
2023-03-20T03:33:50.189Z,13.25
2023-03-20T03:36:38.930Z,13.85
2023-03-20T03:39:27.140Z,13.27
2023-03-20T03:42:03.696Z,13.57
2023-03-20T03:44:41.424Z,13.30
2023-03-20T03:47:23.162Z,13.10
2023-03-20T03:52:24.791Z,12.80
2023-03-20T03:54:57.745Z,12.80
2023-03-20T03:57:36.536Z,13.45
2023-03-20T04:00:07.799Z,12.90
2023-03-20T04:02:43.895Z,13.10
2023-03-20T04:05:12.646Z,12.82
2023-03-20T04:07:39.254Z,13.07
2023-03-20T04:10:06.397Z,12.73
2023-03-20T04:12:41.732Z,12.90
2023-03-20T04:15:12.289Z,12.68
2023-03-20T04:17:38.998Z,12.88
2023-03-20T04:20:08.158Z,13.25
2023-03-20T04:22:34.964Z,12.57
2023-03-20T04:25:09.190Z,12.65
2023-03-20T04:27:36.189Z,12.70
2023-03-20T04:30:11.289Z,13.02
2023-03-20T04:33:00.945Z,13.30
2023-03-20T04:35:44.902Z,13.20
2023-03-20T04:38:14.259Z,13.13
2023-03-20T04:40:41.699Z,12.80
2023-03-20T04:43:08.481Z,13.57
2023-03-20T04:45:35.365Z,13.57
2023-03-20T04:48:02.120Z,13.68
2023-03-20T04:50:30.167Z,13.63
2023-03-20T04:52:57.020Z,14.07
2023-03-20T04:55:23.836Z,13.05
2023-03-20T04:57:50.843Z,14.55
2023-03-20T05:00:18.444Z,13.63
2023-03-20T05:02:45.553Z,13.00
2023-03-20T05:05:14.574Z,13.35
2023-03-20T05:07:41.828Z,12.80
2023-03-20T05:10:11.572Z,12.73
2023-03-20T05:12:48.723Z,13.38
2023-03-20T05:15:43.869Z,13.02
2023-03-20T05:18:19.509Z,13.32
2023-03-20T05:21:09.998Z,13.23
2023-03-20T05:23:56.831Z,13.02
2023-03-20T05:26:44.322Z,13.27
2023-03-20T05:29:23.619Z,12.93
2023-03-20T05:32:19.194Z,12.95
2023-03-20T05:35:08.068Z,13.13
2023-03-20T05:37:58.428Z,12.95
2023-03-20T05:40:34.356Z,12.93
2023-03-20T05:43:17.894Z,13.68
2023-03-20T05:46:04.253Z,12.38
2023-03-20T05:48:47.796Z,12.43
2023-03-20T05:51:49.834Z,12.40
2023-03-20T05:54:35.356Z,11.60
2023-03-20T05:57:08.470Z,12.40
2023-03-20T06:00:05.557Z,12.82
2023-03-20T06:02:57.897Z,12.75
2023-03-20T06:05:45.777Z,12.25
2023-03-20T06:08:12.435Z,12.38
2023-03-20T06:10:39.064Z,12.50
2023-03-20T06:13:05.742Z,12.57
2023-03-20T06:15:32.579Z,11.90
2023-03-20T06:18:09.744Z,11.40
2023-03-20T06:20:36.254Z,12.00
2023-03-20T06:23:04.552Z,11.88
2023-03-20T06:25:31.636Z,11.93
2023-03-20T06:27:58.238Z,11.90
2023-03-20T06:30:24.781Z,11.35
2023-03-20T06:32:51.430Z,11.57
2023-03-20T06:35:19.612Z,12.07
2023-03-20T06:37:48.931Z,11.48
2023-03-20T06:40:22.441Z,11.48
2023-03-20T06:42:49.097Z,11.40
2023-03-20T06:45:16.975Z,11.18
2023-03-20T06:48:01.032Z,11.38
2023-03-20T06:50:28.081Z,11.38
2023-03-20T06:52:55.574Z,11.45
2023-03-20T06:55:43.193Z,11.15
2023-03-20T06:58:10.597Z,10.88
2023-03-20T07:00:37.650Z,10.30
2023-03-20T07:03:05.878Z,10.55
2023-03-20T07:05:32.759Z,10.77
2023-03-20T07:08:01.522Z,10.55
2023-03-20T07:10:28.399Z,10.98
2023-03-20T07:12:55.694Z,10.55
2023-03-20T07:15:22.840Z,10.90
2023-03-20T07:17:50.107Z,10.60
2023-03-20T07:20:17.730Z,10.68
2023-03-20T07:22:46.782Z,9.93
2023-03-20T07:25:24.000Z,10.55
2023-03-20T07:27:59.136Z,10.85
2023-03-20T07:30:27.833Z,9.90
2023-03-20T07:32:55.153Z,10.60
2023-03-20T07:35:24.355Z,10.57
2023-03-20T07:37:51.037Z,10.40
2023-03-20T07:40:18.417Z,9.95
2023-03-20T07:42:52.909Z,10.43
2023-03-20T07:45:48.678Z,10.27
2023-03-20T07:48:15.280Z,10.90
2023-03-20T07:50:42.119Z,10.27
2023-03-20T07:53:08.945Z,10.05
2023-03-20T07:55:35.763Z,10.13
2023-03-20T07:58:02.531Z,9.88
2023-03-20T08:00:29.390Z,10.20
2023-03-20T08:02:57.019Z,9.82
2023-03-20T08:05:24.284Z,10.15
2023-03-20T08:07:51.319Z,10.80
2023-03-20T08:10:17.991Z,10.02
2023-03-20T08:12:44.828Z,9.73
2023-03-20T08:15:11.628Z,8.77
2023-03-20T08:17:38.203Z,9.80
2023-03-20T08:20:05.251Z,9.38
2023-03-20T08:22:31.885Z,9.70
2023-03-20T08:24:58.380Z,9.38
2023-03-20T08:27:24.995Z,9.70
2023-03-20T08:29:51.760Z,9.50
2023-03-20T08:32:18.255Z,9.38
2023-03-20T08:34:44.786Z,9.30
2023-03-20T08:37:12.354Z,9.55
2023-03-20T08:39:39.617Z,9.32
2023-03-20T08:42:07.218Z,9.23
2023-03-20T08:44:33.787Z,9.70
2023-03-20T08:47:00.698Z,9.57
2023-03-20T08:49:27.805Z,9.35
2023-03-20T08:51:54.346Z,9.85
2023-03-20T08:54:21.045Z,9.05
2023-03-20T08:56:47.541Z,9.48
2023-03-20T08:59:14.169Z,9.27
2023-03-20T09:01:49.296Z,9.52
2023-03-20T09:04:17.144Z,8.48
2023-03-20T09:06:43.740Z,9.10
2023-03-20T09:09:10.618Z,9.10
2023-03-20T09:11:37.581Z,9.07
2023-03-20T09:14:04.074Z,8.85
2023-03-20T09:16:30.817Z,9.00
2023-03-20T09:18:57.369Z,9.25
2023-03-20T09:21:23.975Z,9.35
2023-03-20T09:23:50.481Z,9.50
2023-03-20T09:26:17.018Z,9.75
2023-03-20T09:28:43.599Z,9.63
2023-03-20T09:31:10.169Z,8.75
2023-03-20T09:33:36.958Z,9.48
2023-03-20T09:36:04.040Z,9.55
2023-03-20T09:38:30.596Z,9.82
2023-03-20T09:40:59.770Z,9.65
2023-03-20T09:43:39.440Z,9.75
2023-03-20T09:46:35.453Z,9.70
2023-03-20T09:49:23.260Z,9.52
2023-03-20T09:51:59.049Z,9.90
2023-03-20T09:54:28.399Z,9.68
2023-03-20T09:56:57.609Z,9.38
2023-03-20T09:59:26.646Z,9.73
2023-03-20T10:01:58.772Z,9.65
2023-03-20T10:04:28.528Z,9.30
2023-03-20T10:06:56.673Z,9.43
2023-03-20T10:09:25.523Z,9.75
2023-03-20T10:12:10.835Z,9.27
2023-03-20T10:14:47.628Z,9.40
2023-03-20T10:17:58.890Z,9.38
2023-03-20T10:20:54.248Z,8.65
2023-03-20T10:23:36.267Z,8.85
2023-03-20T10:29:02.187Z,8.82
2023-03-20T10:31:55.314Z,7.95
2023-03-20T10:34:36.864Z,8.32
2023-03-20T10:37:22.203Z,8.40
2023-03-20T10:40:23.622Z,8.05
2023-03-20T10:42:52.687Z,8.40
2023-03-20T10:45:33.832Z,7.78
2023-03-20T10:48:04.686Z,7.67
2023-03-20T10:50:41.926Z,7.97
2023-03-20T10:53:08.528Z,7.43
2023-03-20T10:55:40.352Z,7.57
2023-03-20T11:00:46.946Z,7.53
2023-03-20T11:03:30.404Z,7.90
2023-03-20T11:06:12.095Z,7.78
2023-03-20T11:08:46.733Z,8.32
2023-03-20T11:11:13.331Z,7.72
2023-03-20T11:13:44.818Z,7.90
2023-03-20T11:16:23.423Z,8.23
2023-03-20T11:18:52.215Z,8.10
2023-03-20T11:21:25.358Z,8.52
2023-03-20T11:23:52.953Z,8.60
2023-03-20T11:26:40.466Z,8.48
2023-03-20T11:29:16.253Z,9.00
2023-03-20T11:31:43.075Z,8.55
2023-03-20T11:34:15.812Z,8.57
2023-03-20T11:37:08.748Z,8.63
2023-03-20T11:39:37.912Z,8.68
2023-03-20T11:42:23.439Z,8.55
2023-03-20T11:44:58.214Z,8.73
2023-03-20T11:47:27.726Z,8.30
2023-03-20T11:49:56.881Z,8.80
2023-03-20T11:52:38.960Z,8.40
2023-03-20T11:55:23.719Z,8.10
2023-03-20T11:57:50.823Z,8.20
2023-03-20T12:00:24.019Z,8.20
2023-03-20T12:02:50.642Z,8.18
2023-03-20T12:05:36.696Z,7.60
2023-03-20T12:08:25.369Z,7.95
2023-03-20T12:10:59.243Z,8.23
2023-03-20T12:13:33.330Z,7.78
2023-03-20T12:16:05.204Z,7.65
2023-03-20T12:21:12.534Z,8.13
2023-03-20T12:23:45.514Z,7.85
2023-03-20T12:26:33.274Z,8.40
2023-03-20T12:29:17.847Z,8.13
2023-03-20T12:31:51.894Z,8.63
2023-03-20T12:34:27.917Z,8.18
2023-03-20T12:36:57.494Z,8.15
2023-03-20T12:39:29.443Z,8.07
2023-03-20T12:45:01.251Z,8.10
2023-03-20T12:47:52.401Z,8.00
2023-03-20T12:50:32.753Z,8.55
2023-03-20T12:53:17.264Z,8.30
2023-03-20T12:55:59.106Z,8.35
2023-03-20T12:58:46.274Z,8.27
2023-03-20T13:01:32.553Z,8.77
2023-03-20T13:04:20.896Z,8.40
2023-03-20T13:06:56.669Z,8.40
2023-03-20T13:09:52.610Z,8.60
2023-03-20T13:12:36.203Z,8.75
2023-03-20T13:15:30.276Z,8.57
2023-03-20T13:18:17.098Z,8.70
2023-03-20T13:20:52.953Z,8.20
2023-03-20T13:23:33.247Z,8.30
2023-03-20T13:26:20.196Z,8.48
2023-03-20T13:29:07.070Z,8.38
2023-03-20T13:31:55.322Z,8.45
2023-03-20T13:34:31.831Z,8.80
2023-03-20T13:37:22.921Z,8.35
2023-03-20T13:40:11.900Z,8.02
2023-03-20T13:43:11.313Z,8.45
2023-03-20T13:45:42.524Z,8.38
2023-03-20T13:48:33.704Z,8.00
2023-03-20T13:51:06.692Z,8.05
2023-03-20T13:53:45.683Z,8.13
2023-03-20T13:56:35.353Z,8.38
2023-03-20T13:59:16.095Z,8.35
2023-03-20T14:01:58.915Z,8.40
2023-03-20T14:04:27.575Z,7.60
2023-03-20T14:06:59.358Z,8.50
2023-03-20T14:12:13.161Z,7.93
2023-03-20T14:15:00.218Z,7.35
2023-03-20T14:17:29.878Z,7.63
2023-03-20T14:19:57.596Z,7.38
2023-03-20T14:22:29.853Z,7.70
2023-03-20T14:25:06.665Z,7.22
2023-03-20T14:27:53.587Z,7.85
2023-03-20T14:30:32.379Z,7.13
2023-03-20T14:33:20.714Z,7.55
2023-03-20T14:36:22.263Z,8.13
2023-03-20T14:39:07.344Z,7.72
2023-03-20T14:42:03.128Z,7.60
2023-03-20T14:44:44.853Z,8.13
2023-03-20T14:47:53.274Z,8.05
2023-03-20T14:50:49.022Z,7.68
2023-03-20T14:53:24.844Z,7.28
2023-03-20T14:55:57.669Z,7.30
2023-03-20T14:58:56.129Z,8.02
2023-03-20T15:01:22.692Z,8.02
2023-03-20T15:04:13.640Z,7.63
2023-03-20T15:06:48.748Z,7.68
2023-03-20T15:09:16.544Z,7.47
2023-03-20T15:11:43.684Z,7.45
2023-03-20T15:14:16.337Z,7.63
2023-03-20T15:16:46.754Z,7.85
2023-03-20T15:19:19.824Z,7.68
2023-03-20T15:21:49.093Z,8.02
2023-03-20T15:24:27.680Z,7.70
2023-03-20T15:26:57.942Z,8.50
2023-03-20T15:29:25.039Z,7.03
2023-03-20T15:32:12.462Z,7.43
2023-03-20T15:34:41.539Z,6.43
2023-03-20T15:37:14.685Z,6.40
2023-03-20T15:39:44.596Z,6.55
2023-03-20T15:42:15.932Z,6.20
2023-03-20T15:44:47.852Z,6.43
2023-03-20T15:47:20.595Z,6.80
2023-03-20T15:49:56.033Z,6.53
2023-03-20T15:52:34.492Z,6.70
2023-03-20T15:55:06.190Z,6.85
2023-03-20T15:57:35.912Z,6.97
2023-03-20T16:00:10.070Z,7.00
2023-03-20T16:02:37.514Z,7.07
2023-03-20T16:05:05.008Z,7.10
2023-03-20T16:07:33.217Z,6.95
2023-03-20T16:10:00.429Z,6.35
2023-03-20T16:12:27.529Z,7.13
2023-03-20T16:14:55.221Z,7.00
2023-03-20T16:17:23.967Z,7.07
2023-03-20T16:19:51.946Z,7.30
2023-03-20T16:22:24.156Z,7.30
2023-03-20T16:24:55.563Z,7.47
2023-03-20T16:27:32.724Z,7.38
2023-03-20T16:30:03.393Z,6.97
2023-03-20T16:32:39.273Z,6.75
2023-03-20T16:35:18.567Z,7.05
2023-03-20T16:37:53.461Z,7.72
2023-03-20T16:40:33.834Z,7.53
2023-03-20T16:43:12.079Z,7.03
2023-03-20T16:45:44.167Z,7.28
2023-03-20T16:48:11.202Z,7.30
2023-03-20T16:50:43.191Z,8.10
2023-03-20T16:53:16.357Z,7.50
2023-03-20T16:55:51.424Z,8.57
2023-03-20T16:58:24.410Z,8.38
2023-03-20T17:00:59.915Z,8.35
2023-03-20T17:03:40.079Z,8.52
2023-03-20T17:06:27.074Z,8.70
2023-03-20T17:09:15.277Z,8.30
2023-03-20T17:11:48.177Z,8.13
2023-03-20T17:14:15.845Z,8.52
2023-03-20T17:16:43.978Z,8.82
2023-03-20T17:19:15.892Z,8.32
2023-03-20T17:24:10.786Z,8.85
2023-03-20T17:26:38.620Z,9.57
2023-03-20T17:29:05.753Z,9.55
2023-03-20T17:31:32.424Z,8.75
2023-03-20T17:33:59.019Z,9.05
2023-03-20T17:36:27.987Z,8.60
2023-03-20T17:38:55.499Z,9.30
2023-03-20T17:41:22.970Z,9.65
2023-03-20T17:43:51.437Z,8.95
2023-03-20T17:46:29.874Z,9.32
2023-03-20T17:49:00.789Z,9.18
2023-03-20T17:51:27.313Z,9.77
2023-03-20T17:53:56.030Z,9.18
2023-03-20T17:56:23.495Z,9.63
2023-03-20T17:58:50.785Z,9.65
2023-03-20T18:01:17.583Z,9.40
2023-03-20T18:03:44.244Z,9.13
2023-03-20T18:06:20.596Z,8.75
2023-03-20T18:08:47.545Z,9.27
2023-03-20T18:11:14.270Z,9.13
2023-03-20T18:13:40.892Z,9.50
2023-03-20T18:16:21.757Z,9.90
2023-03-20T18:18:49.119Z,9.23
2023-03-20T18:21:17.127Z,9.20
2023-03-20T18:23:44.279Z,9.75
2023-03-20T18:26:18.853Z,10.05
2023-03-20T18:28:46.407Z,10.75
2023-03-20T18:31:14.911Z,9.90
2023-03-20T18:33:41.534Z,10.05
2023-03-20T18:36:14.496Z,10.98
2023-03-20T18:38:41.070Z,10.77
2023-03-20T18:41:08.554Z,11.10
2023-03-20T18:43:35.322Z,11.10
2023-03-20T18:46:02.255Z,10.45
2023-03-20T18:48:30.618Z,10.10
2023-03-20T18:51:01.232Z,10.35
2023-03-20T18:53:29.262Z,10.38
2023-03-20T18:55:56.318Z,10.30
2023-03-20T18:58:26.026Z,10.45
2023-03-20T19:00:54.277Z,10.38
2023-03-20T19:03:24.278Z,10.27
2023-03-20T19:05:55.978Z,10.93
2023-03-20T19:08:22.459Z,10.50
2023-03-20T19:10:49.850Z,10.30
2023-03-20T19:13:19.737Z,10.88
2023-03-20T19:15:46.685Z,10.82
2023-03-20T19:18:22.698Z,10.48
2023-03-20T19:20:55.636Z,11.48
2023-03-20T19:23:24.500Z,11.15
2023-03-20T19:25:53.368Z,10.73
2023-03-20T19:28:37.695Z,10.38
2023-03-20T19:31:06.312Z,11.30
2023-03-20T19:33:33.296Z,10.98
2023-03-20T19:36:03.206Z,10.70
2023-03-20T19:38:31.876Z,10.20
2023-03-20T19:40:59.687Z,10.57
2023-03-20T19:43:28.860Z,11.05
2023-03-20T19:45:58.836Z,11.13
2023-03-20T19:48:50.032Z,10.85
2023-03-20T19:51:23.029Z,11.55
2023-03-20T19:53:50.557Z,11.18
2023-03-20T19:56:18.498Z,11.90
2023-03-20T19:58:45.224Z,11.82
2023-03-20T20:01:17.852Z,11.90
2023-03-20T20:03:45.690Z,11.75
2023-03-20T20:06:12.465Z,12.57
2023-03-20T20:08:47.998Z,12.77
2023-03-20T20:11:15.962Z,13.27
2023-03-20T20:14:01.910Z,13.32
2023-03-20T20:16:29.548Z,13.02
2023-03-20T20:18:56.229Z,12.77
2023-03-20T20:24:09.282Z,12.18
2023-03-20T20:26:40.583Z,12.20
2023-03-20T20:29:14.488Z,12.68
2023-03-20T20:31:41.074Z,11.80
2023-03-20T20:35:08.499Z,12.68
2023-03-20T20:39:40.974Z,11.85
2023-03-20T20:42:07.593Z,11.77
2023-03-20T20:44:34.649Z,12.00
2023-03-20T20:47:01.315Z,12.30
2023-03-20T20:49:27.898Z,11.63
2023-03-20T20:51:54.550Z,11.73
2023-03-20T20:54:21.153Z,11.40
2023-03-20T20:56:47.671Z,11.05
2023-03-20T20:59:14.295Z,10.93
2023-03-20T21:01:41.089Z,10.40
2023-03-20T21:04:07.917Z,10.20
2023-03-20T21:07:05.620Z,10.55
2023-03-20T21:09:20.988Z,10.35
2023-03-20T21:11:47.559Z,10.93
2023-03-20T21:14:14.217Z,10.10
2023-03-20T21:16:40.737Z,10.00
2023-03-20T21:19:07.647Z,10.30
2023-03-20T21:21:35.583Z,9.70
2023-03-20T21:24:02.465Z,10.07
2023-03-20T21:26:29.053Z,10.05
2023-03-20T21:28:55.673Z,9.98
2023-03-20T21:31:27.930Z,10.00
2023-03-20T21:33:56.523Z,10.10
2023-03-20T21:36:23.575Z,10.18
2023-03-20T21:39:08.587Z,9.77
2023-03-20T21:41:37.895Z,10.50
2023-03-20T21:44:05.970Z,10.27
2023-03-20T22:03:42.115Z,10.60
2023-03-20T22:12:18.608Z,11.52
2023-03-20T22:45:10.047Z,11.20
2023-03-20T22:47:37.073Z,11.77
2023-03-20T22:50:04.143Z,12.30
2023-03-20T22:52:47.681Z,11.55
2023-03-20T22:55:16.474Z,11.23
2023-03-20T22:57:52.840Z,11.23
2023-03-20T23:00:27.190Z,11.35
2023-03-20T23:02:57.462Z,11.70
2023-03-20T23:05:27.019Z,11.20
2023-03-20T23:07:53.643Z,11.18
2023-03-20T23:10:20.611Z,10.43
2023-03-20T23:12:47.181Z,10.52
2023-03-20T23:15:13.733Z,9.50
2023-03-20T23:17:40.442Z,10.43
2023-03-20T23:20:12.305Z,11.05
2023-03-20T23:22:40.594Z,11.00
2023-03-20T23:25:18.240Z,9.85
2023-03-20T23:27:47.547Z,10.98
2023-03-20T23:30:14.766Z,11.27
2023-03-20T23:32:42.104Z,10.68
2023-03-20T23:35:09.562Z,10.77
2023-03-20T23:37:36.435Z,10.25
2023-03-20T23:40:04.468Z,11.02
2023-03-20T23:42:31.201Z,11.20
2023-03-20T23:45:04.283Z,10.50
2023-03-20T23:47:44.790Z,11.20
2023-03-20T23:50:17.407Z,10.70
2023-03-20T23:52:57.100Z,10.60
2023-03-20T23:55:25.731Z,10.98
2023-03-20T23:57:52.352Z,11.30
